Página principal
METAR-TAF:

METAR-TAF

Aeroportos :

Aeroporto Internacional Rei Abdulaziz

Jidá, Arábia Saudita

latitude: 21-42N, longitude: 039-11E, altura: 15 m

Observação actual do tempo

O boletim foi feito há 48 minutos, às 10:00 UTC
Vento 10 kt de oes-noroeste
Temperatura 38°C
Humidade 51%
Pressão 1006 hPa
Visibilidade 10 km ou mais
Poucas nuvensa uma altura de 4000 ft

METAR: OEJN 231000Z 30010KT 9999 FEW040 38/26 Q1006 NOSIG

Hora: 13:48 (10:48 UTC)

Previsão

O boletim foi feito há 5 horas e 48 minutos, às 05:00 UTC
Previsão válida de 23 às 06 UTC a 24 às 12 UTC
Vento 14 kt de oeste
Visibilidade 10 km ou mais
Nuvens dispersasa uma altura de 4000 ft
Nuvens dispersasa uma altura de 10000 ft
Tornando-se
de 23 às 18 UTC a 23 às 20 UTC
Vento 6 kt de nor-nordeste

TAF: OEJN 230500Z 2306/2412 26014KT 9999 SCT040 SCT100 BECMG 2318/2320 03006KT

Observações e previsões do tempo de mais de 4000 aeroportos (mensagens METAR e TAF).

As estações disponíveis são os pontos amarelos e vermelhos sobre o mapa.

Mova o rato sobre o mapa para ver o nome da estação.

Depois clique no ponto para visualizar as observações e previsões meteorológicas.

Para alterar o mapa : clique nos botões verdes com uma cruz preta para aumentar o zoom; no botão verde com uma pitada de zoom; ou nas setas verdes para mapas adjacentes.


METAR-TAF: